Map

Track Data

SID SEASON NUMBER BASIN SUBBASIN NAME ISO_TIME NATURE LAT LON WMO_WIND WMO_PRES WMO_AGENCY TRACK_TYPE DIST2LAND LANDFALL IFLAG USA_AGENCY USA_ATCF_ID USA_LAT USA_LON USA_RECORD USA_STATUS USA_WIND USA_PRES USA_SSHS USA_R34_NE USA_R34_SE USA_R34_SW USA_R34_NW USA_R50_NE USA_R50_SE USA_R50_SW USA_R50_NW USA_R64_NE USA_R64_SE USA_R64_SW USA_R64_NW USA_POCI USA_ROCI USA_RMW USA_EYE TOKYO_LAT TOKYO_LON TOKYO_GRADE TOKYO_WIND TOKYO_PRES TOKYO_R50_DIR TOKYO_R50_LONG TOKYO_R50_SHORT TOKYO_R30_DIR TOKYO_R30_LONG TOKYO_R30_SHORT TOKYO_LAND CMA_LAT CMA_LON CMA_CAT CMA_WIND CMA_PRES HKO_LAT HKO_LON HKO_CAT HKO_WIND HKO_PRES NEWDELHI_LAT NEWDELHI_LON NEWDELHI_GRADE NEWDELHI_WIND NEWDELHI_PRES NEWDELHI_CI NEWDELHI_DP NEWDELHI_POCI REUNION_LAT REUNION_LON REUNION_TYPE REUNION_WIND REUNION_PRES REUNION_TNUM REUNION_CI REUNION_RMW REUNION_R34_NE REUNION_R34_SE REUNION_R34_SW REUNION_R34_NW REUNION_R50_NE REUNION_R50_SE REUNION_R50_SW REUNION_R50_NW REUNION_R64_NE REUNION_R64_SE REUNION_R64_SW REUNION_R64_NW BOM_LAT BOM_LON BOM_TYPE BOM_WIND BOM_PRES BOM_TNUM BOM_CI BOM_RMW BOM_R34_NE BOM_R34_SE BOM_R34_SW BOM_R34_NW BOM_R50_NE BOM_R50_SE BOM_R50_SW BOM_R50_NW BOM_R64_NE BOM_R64_SE BOM_R64_SW BOM_R64_NW BOM_ROCI BOM_POCI BOM_EYE BOM_POS_METHOD BOM_PRES_METHOD NADI_LAT NADI_LON NADI_CAT NADI_WIND NADI_PRES WELLINGTON_LAT WELLINGTON_LON WELLINGTON_WIND WELLINGTON_PRES DS824_LAT DS824_LON DS824_STAGE DS824_WIND DS824_PRES TD9636_LAT TD9636_LON TD9636_STAGE TD9636_WIND TD9636_PRES TD9635_LAT TD9635_LON TD9635_WIND TD9635_PRES TD9635_ROCI NEUMANN_LAT NEUMANN_LON NEUMANN_CLASS NEUMANN_WIND NEUMANN_PRES MLC_LAT MLC_LON MLC_CLASS MLC_WIND MLC_PRES USA_GUST BOM_GUST BOM_GUST_PER REUNION_GUST REUNION_GUST_PER USA_SEAHGT USA_SEARAD_NE USA_SEARAD_SE USA_SEARAD_SW USA_SEARAD_NW STORM_SPEED STORM_DIR
1934065S20111 1934 16 SI WA NOT_NAMED 1934-03-05 23:00:00 NR -20.1000 111.300 main 345 338 __________O___ -1 -20.1000 111.300 7 10 0
1934065S20111 1934 16 SI WA NOT_NAMED 1934-03-06 00:00:00 NR -20.2600 111.329 main 332 332 __________P___ -1 -20.2600 111.329 7 7 193
1934065S20111 1934 16 SI WA NOT_NAMED 1934-03-06 01:00:00 NR -20.3149 111.269 bom main 332 315 ______O___P___ -1 -20.0000 111.000 -20.4199 111.359 7 7 178
1934065S20111 1934 16 SI WA NOT_NAMED 1934-03-06 03:00:00 NR -20.6267 111.333 main 315 272 ______P___P___ -1 -20.4016 111.162 -20.7392 111.419 7 10 167
1934065S20111 1934 16 SI WA NOT_NAMED 1934-03-06 06:00:00 NR -21.1247 111.468 main 272 234 ______P___P___ -1 -21.0029 111.405 -21.2160 111.515 7 11 165
1934065S20111 1934 16 SI WA NOT_NAMED 1934-03-06 09:00:00 NR -21.6451 111.633 main 234 206 ______P___P___ -1 -21.6018 111.646 -21.6884 111.621 7 11 163
1934065S20111 1934 16 SI WA NOT_NAMED 1934-03-06 11:00:00 NR -21.9995 111.752 main 196 193 ______P___O___ -1 -21.9991 111.804 -22.0000 111.700 7 11 162
1934065S20111 1934 16 SI WA NOT_NAMED 1934-03-06 12:00:00 NR -22.1758 111.812 main 190 164 ______P___P___ -1 -22.1969 111.883 -22.1547 111.742 7 11 162
1934065S20111 1934 16 SI WA NOT_NAMED 1934-03-06 15:00:00 NR -22.7038 111.996 main 164 153 ______P___P___ -1 -22.7868 112.113 -22.6208 111.879 7 11 162
1934065S20111 1934 16 SI WA NOT_NAMED 1934-03-06 18:00:00 NR -23.2373 112.182 main 153 112 ______P___P___ -1 -23.3703 112.334 -23.1043 112.030 7 11 163
1934065S20111 1934 16 SI WA NOT_NAMED 1934-03-06 21:00:00 NR -23.7851 112.366 main 112 97 ______P___P___ -1 -23.9461 112.543 -23.6241 112.190 7 12 163
1934065S20111 1934 16 SI WA NOT_NAMED 1934-03-06 23:00:00 NR -24.1626 112.488 main 93 91 ______P___O___ -1 -24.3251 112.675 -24.0000 112.300 7 12 164
1934065S20111 1934 16 SI WA NOT_NAMED 1934-03-07 00:00:00 NR -24.3536 112.545 main 91 80 ______P___P___ -1 -24.5131 112.738 -24.1941 112.352 7 12 165
1934065S20111 1934 16 SI WA NOT_NAMED 1934-03-07 01:00:00 NR -24.5471 112.602 bom main 81 78 ______O___P___ -1 -24.7000 112.800 -24.3943 112.404 7 12 166
1934065S20111 1934 16 SI WA NOT_NAMED 1934-03-07 03:00:00 NR -24.9411 112.714 main 90 54 ______P___P___ -1 -25.0700 112.918 -24.8121 112.510 7 12 166
1934065S20111 1934 16 SI WA NOT_NAMED 1934-03-07 06:00:00 NR -25.5465 112.882 main 54 29 ______P___P___ -1 -25.6121 113.084 -25.4809 112.679 7 13 166
1934065S20111 1934 16 SI WA NOT_NAMED 1934-03-07 09:00:00 NR -26.1650 113.055 main 19 19 ______P___P___ -1 -26.1326 113.246 -26.1974 112.865 7 13 166
1934065S20111 1934 16 SI WA NOT_NAMED 1934-03-07 10:00:00 NR -26.3731 113.116 bom main 22 22 ______O___P___ -1 -26.3000 113.300 -26.4463 112.931 7 13 165
1934065S20111 1934 16 SI WA NOT_NAMED 1934-03-07 11:00:00 NR -26.5814 113.178 main 29 29 ______P___O___ -1 -26.4627 113.355 -26.7000 113.000 7 13 165
1934065S20111 1934 16 SI WA NOT_NAMED 1934-03-07 11:50:00 NR -26.7575 113.230 bom main 41 41 ______O___P___ -1 -26.6000 113.400 -26.9150 113.060 7 13 164
1934065S20111 1934 16 SI WA NOT_NAMED 1934-03-07 12:00:00 NR -26.7932 113.240 main 41 31 ______P___P___ -1 -26.6280 113.409 -26.9584 113.072 7 14 166
1934065S20111 1934 16 SI WA NOT_NAMED 1934-03-07 15:00:00 NR -27.4640 113.432 main 63 50 ______P___P___ -1 -27.1698 113.560 -27.7582 113.303 7 14 165
1934065S20111 1934 16 SI WA NOT_NAMED 1934-03-07 18:00:00 NR -28.1200 113.637 main 58 50 ______P___P___ -1 -27.7701 113.700 -28.5864 113.554 7 13 165
1934065S20111 1934 16 SI WA NOT_NAMED 1934-03-07 21:00:00 NR -28.7517 113.827 main 76 69 ______P___P___ -1 -28.4115 113.831 -29.4320 113.818 7 13 166
1934065S20111 1934 16 SI WA NOT_NAMED 1934-03-07 23:00:00 NR -29.1399 113.937 main 75 67 ______P___O___ -1 -28.8532 113.916 -30.0000 114.000 7 7 161
1934065S20111 1934 16 SI WA NOT_NAMED 1934-03-08 00:00:00 NR -29.0763 113.958 main 67 67 ______P_______ -1 -29.0763 113.958 7 5 162
1934065S20111 1934 16 SI WA NOT_NAMED 1934-03-08 01:00:00 NR -29.3000 114.000 bom main 80 ______O_______ -1 -29.3000 114.000 7 14 170

About IBTrACS Database

This database is a web-friendly format of International Best Track Archive for Climate Stewardship (IBTrACS), a global best track data archive curated by NOAA dating back to 1842.

Updated: 2021-10-21